Disclaimer

    

CYCD

METAR CYCD 251600Z 00000KT 30SM FEW170 FEW230 14/12 A2987 RMK AC1CI1 AC TR SLP118 DENSITY ALT 100FT=

METAR CYCD 251500Z 00000KT 30SM MIFG FEW170 SCT230 10/10 A2987 RMK AC1CI2 SLP117=

METAR CYCD 251400Z 00000KT 30SM MIFG FEW170 SCT230 10/10 A2987 RMK AC1CI3 AC TR SLP116=

TAF CYCD 251438Z 2515/2603 VRB03KT P6SM FEW180 PROB30 2515/2518 1SM BR
FM251800 10007KT P6SM FEW040 SCT150
FM260000 16007KT P6SM FEW040 BKN150 RMK NXT FCST BY 251800Z=

CYVR

METAR CYVR 251600Z 11008KT 30SM FEW003 FEW150 FEW240 14/14 A2987 RMK SF1AC1CI1 SF TR AC TR CI TR SLP116=

METAR CYVR 251500Z 08004KT 30SM FEW150 FEW240 12/12 A2987 RMK AC1CI1 AC TR SLP118=

METAR CYVR 251400Z 00000KT 20SM R08L/3500VP6000FT/N R08R/3000VP6000FT/D MIFG FEW002 FEW150 FEW240 11/11 A2987 RMK SF1AC1CI1 SF TR AC TR CI TR SLP116=

TAF CYVR 251438Z 2515/2618 10005KT P6SM FEW240 PROB30 2515/2517 1SM BR
FM251800 12008KT P6SM FEW050 TEMPO 2520/2601 BKN050
FM260100 12008KT P6SM FEW050 BKN120
FM261100 10010KT P6SM SCT040 BKN080 TEMPO 2611/2615 P6SM -SHRA
FM261500 10012KT P6SM -RA SCT008 OVC015 RMK NXT FCST BY 251800Z=

CYXX

METAR CYXX 251600Z 00000KT 30SM FEW006 FEW160 FEW230 FEW250 14/12 A2988 RMK SF1AC1CI1CI1 SF TR AC TR CI TR CI TR SLP121 DENSITY ALT 200FT=

SPECI CYXX 251520Z 25002KT 30SM VCFG FEW003 FEW210 12/12 A2988 RMK SF1CI1 SF TR VIS 3 E AND SW SLP120=

METAR CYXX 251500Z 25002KT 30SM R07/3000VP6000FT/U PRFG FEW002 FEW200 11/11 A2987 RMK SF1CI1 SF TR VIS 1 E AND SW-W SLP117=

SPECI CYXX 251450Z 00000KT 30SM R07/2800V4000FT/N PRFG FEW002 FEW200 11/11 A2987 RMK SF1CI1 SF TR VIS 1 SE AND SW-W SLP117=

SPECI CYXX 251409Z VRB02KT 3/4SM R07/1600V2000FT/N BR FEW200 10/09 A2986 RMK CI1 TWR VIS 30 SLP114=

METAR CYXX 251400Z 00000KT 30SM PRFG FEW200 10/09 A2987 RMK CI1 FG BANK SE-SW VIS 3/4 SLP116=

TAF AMD CYXX 251414Z 2514/2612 VRB03KT P6SM FEW200 TEMPO 2514/2516 1/2SM FG
FM252000 22008KT P6SM FEW120 SCT200 BECMG 2602/2604 VRB03KT
FM260900 VRB03KT P6SM SCT060 BKN120 RMK NXT FCST BY 251800Z=

Supplemental information

Lower mainland ATIS: 1-877-517-2847

CZBB (Boundary Bay) current winds

Upper winds (Vancouver)

Data fromValid at300060009000
25120025180016072315+112324+06
25120026000016092115+102321+06
25120026120013122132+062332+03

NOTAMs

On October 10, 2019, NAV CANADA changed to the ICAO NOTAM format. They are now available only through Collaborative Flight Planning Services (CFPS) (plan.navcanada.ca). I'm working to update this site to pull in the relevant NOTAMs in the new format.